Time;durP1;ratioP1;P1;durP2;ratioP2;P2;SDS_P1;SDS_P2;PMS_P1;PMS_P2;Temp;Humidity;BMP_temperature;BMP_pressure;BME280_temperature;BME280_humidity;BME280_pressure;Samples;Min_cycle;Max_cycle;Signal;HPM_P1;HPM_P2
2023/05/18 00:05:16;;;;;;;5.10;1.60;;;;;;;6.54;100.00;99274.88;15273875;19;20038;-44
2023/05/18 00:10:44;;;;;;;6.32;1.40;;;;;;;6.50;100.00;99277.91;15274131;19;20022;-44
2023/05/18 00:16:10;;;;;;;6.78;1.60;;;;;;;6.47;100.00;99278.94;15268465;19;20026;-46
2023/05/18 00:21:39;;;;;;;6.35;1.40;;;;;;;6.45;100.00;99276.41;15275507;19;20029;-45
2023/05/18 00:27:06;;;;;;;5.28;1.70;;;;;;;6.43;100.00;99278.34;15285875;19;20660;-48
2023/05/18 00:32:37;;;;;;;5.15;1.45;;;;;;;6.40;100.00;99283.94;15298420;19;20018;-47
2023/05/18 00:38:04;;;;;;;4.78;1.50;;;;;;;6.37;100.00;99283.28;15263778;19;20018;-49
2023/05/18 00:43:34;;;;;;;8.30;1.65;;;;;;;6.31;100.00;99285.47;15268352;19;20014;-44
2023/05/18 00:49:00;;;;;;;6.85;1.73;;;;;;;6.27;100.00;99293.84;15264436;19;20830;-44
2023/05/18 00:54:25;;;;;;;5.35;1.42;;;;;;;6.21;100.00;99294.25;15265222;19;20035;-44
2023/05/18 00:59:52;;;;;;;4.57;1.40;;;;;;;6.15;100.00;99299.13;15266394;19;20014;-45
2023/05/18 01:05:21;;;;;;;4.88;1.70;;;;;;;6.06;100.00;99297.06;15259320;19;20014;-45
2023/05/18 01:10:47;;;;;;;6.78;1.73;;;;;;;5.99;100.00;99301.16;15269722;19;20530;-45
2023/05/18 01:16:20;;;;;;;6.45;1.60;;;;;;;5.93;100.00;99298.91;15267059;19;20014;-44
2023/05/18 01:21:57;;;;;;;5.15;1.40;;;;;;;5.86;100.00;99299.34;15268488;19;20010;-45
2023/05/18 01:27:26;;;;;;;4.75;1.60;;;;;;;5.81;100.00;99297.97;15265771;19;20742;-45
2023/05/18 01:32:51;;;;;;;7.65;1.80;;;;;;;5.74;100.00;99302.06;15282023;19;20090;-45
2023/05/18 01:38:15;;;;;;;6.30;1.65;;;;;;;5.68;100.00;99301.50;15267569;19;20018;-50
2023/05/18 01:43:49;;;;;;;6.03;1.48;;;;;;;5.64;100.00;99293.81;15281500;19;20035;-50
2023/05/18 01:49:21;;;;;;;8.18;1.75;;;;;;;5.58;100.00;99302.28;15276069;19;20020;-43
2023/05/18 01:54:48;;;;;;;4.63;1.50;;;;;;;5.57;100.00;99303.25;15278130;19;20010;-44
2023/05/18 02:00:17;;;;;;;6.65;1.70;;;;;;;5.47;100.00;99309.19;15276798;19;20016;-44
2023/05/18 02:05:43;;;;;;;6.32;1.65;;;;;;;5.46;100.00;99310.19;15270967;19;20058;-52
2023/05/18 02:11:08;;;;;;;6.55;1.77;;;;;;;5.39;100.00;99316.91;15278779;19;20019;-44
2023/05/18 02:16:36;;;;;;;3.85;1.45;;;;;;;5.35;100.00;99310.09;15274963;19;20015;-49
2023/05/18 02:22:01;;;;;;;6.57;1.60;;;;;;;5.30;100.00;99312.22;15278885;19;20046;-46
2023/05/18 02:27:26;;;;;;;7.28;1.50;;;;;;;5.24;100.00;99317.00;15272766;19;20493;-46
2023/05/18 02:33:03;;;;;;;6.40;1.67;;;;;;;5.19;100.00;99308.47;15276990;19;20086;-46
2023/05/18 02:38:28;;;;;;;6.40;1.70;;;;;;;5.07;100.00;99310.13;15263765;19;20029;-49
2023/05/18 02:43:52;;;;;;;9.55;1.67;;;;;;;5.02;100.00;99309.59;15274919;19;20022;-46
2023/05/18 02:49:19;;;;;;;9.13;2.00;;;;;;;4.98;100.00;99309.91;15269139;19;20101;-45
2023/05/18 02:54:45;;;;;;;7.07;1.98;;;;;;;4.85;100.00;99308.06;15274680;19;20019;-48
2023/05/18 03:00:28;;;;;;;6.65;1.77;;;;;;;4.83;100.00;99317.13;15279690;19;20089;-45
2023/05/18 03:05:55;;;;;;;5.47;1.70;;;;;;;4.79;100.00;99311.13;15268445;19;20042;-47
2023/05/18 03:11:20;;;;;;;6.85;1.90;;;;;;;4.72;100.00;99316.03;15270479;19;20010;-45
2023/05/18 03:16:46;;;;;;;5.93;1.80;;;;;;;4.69;100.00;99310.03;15270824;19;20483;-45
2023/05/18 03:22:14;;;;;;;5.95;1.60;;;;;;;4.64;100.00;99315.69;15273509;19;20015;-49
2023/05/18 03:27:39;;;;;;;9.02;2.10;;;;;;;4.56;100.00;99326.03;15269902;19;20022;-50
2023/05/18 03:33:05;;;;;;;9.18;1.90;;;;;;;4.48;100.00;99315.84;15272758;19;20367;-49
2023/05/18 03:38:32;;;;;;;7.70;1.90;;;;;;;4.43;100.00;99321.50;15265227;19;20030;-44
2023/05/18 03:43:58;;;;;;;6.18;1.90;;;;;;;4.42;100.00;99324.25;15264997;19;20010;-45
2023/05/18 03:49:23;;;;;;;4.88;1.60;;;;;;;4.42;100.00;99329.56;15267615;19;20390;-51
2023/05/18 03:54:50;;;;;;;5.43;1.70;;;;;;;4.45;100.00;99338.25;15271285;19;20018;-47
2023/05/18 04:00:17;;;;;;;7.63;1.85;;;;;;;4.47;100.00;99343.50;15269548;19;20034;-47
2023/05/18 04:05:43;;;;;;;7.40;1.92;;;;;;;4.50;100.00;99343.28;15267670;19;20011;-50
2023/05/18 04:11:10;;;;;;;5.53;1.80;;;;;;;4.54;100.00;99347.47;15267207;19;20010;-45
2023/05/18 04:16:35;;;;;;;5.95;2.05;;;;;;;4.57;100.00;99352.59;15259729;19;20601;-50
2023/05/18 04:21:59;;;;;;;6.70;2.00;;;;;;;4.60;100.00;99360.41;15269534;19;20015;-47
2023/05/18 04:27:28;;;;;;;7.95;2.30;;;;;;;4.68;100.00;99365.25;15268175;19;20089;-50
2023/05/18 04:32:59;;;;;;;5.47;1.90;;;;;;;4.75;100.00;99363.88;15269440;19;20019;-43
2023/05/18 04:38:25;;;;;;;8.10;2.10;;;;;;;4.85;100.00;99364.16;15264781;19;20014;-44
2023/05/18 04:43:52;;;;;;;6.55;2.10;;;;;;;4.94;100.00;99363.53;15268436;19;20349;-46
2023/05/18 04:49:20;;;;;;;7.75;2.35;;;;;;;5.06;100.00;99372.53;15259913;19;20034;-48
2023/05/18 04:54:46;;;;;;;7.25;2.20;;;;;;;5.17;100.00;99373.66;15265206;19;20018;-46
2023/05/18 05:00:15;;;;;;;7.18;2.25;;;;;;;5.31;100.00;99378.88;15265051;19;20038;-48
2023/05/18 05:05:40;;;;;;;7.55;2.20;;;;;;;5.40;100.00;99374.75;15274305;19;20011;-50
2023/05/18 05:11:05;;;;;;;6.38;1.98;;;;;;;5.53;100.00;99374.75;15271936;19;20485;-52
2023/05/18 05:16:33;;;;;;;6.35;2.00;;;;;;;5.61;100.00;99369.75;15271914;19;20046;-50
2023/05/18 05:21:58;;;;;;;7.05;2.03;;;;;;;5.72;100.00;99382.34;15270675;19;20650;-44
2023/05/18 05:27:25;;;;;;;7.18;1.85;;;;;;;5.84;100.00;99376.16;15272124;19;20020;-45
2023/05/18 05:32:59;;;;;;;5.70;1.90;;;;;;;5.96;100.00;99377.13;15272375;19;20014;-47
2023/05/18 05:38:24;;;;;;;6.28;2.08;;;;;;;6.07;100.00;99379.06;15270916;19;20010;-45
2023/05/18 05:43:55;;;;;;;6.63;1.88;;;;;;;6.23;100.00;99377.97;15278981;19;20366;-46
2023/05/18 05:49:23;;;;;;;7.20;2.00;;;;;;;6.39;100.00;99373.22;15270557;19;20014;-45
2023/05/18 05:54:50;;;;;;;7.72;1.85;;;;;;;6.52;100.00;99383.91;15267089;19;20039;-47
2023/05/18 06:00:16;;;;;;;4.95;1.45;;;;;;;6.68;100.00;99378.25;15275720;19;20398;-46
2023/05/18 06:05:47;;;;;;;4.55;1.58;;;;;;;6.84;100.00;99364.59;15271756;19;20026;-44
2023/05/18 06:11:14;;;;;;;5.18;1.52;;;;;;;6.97;100.00;99372.59;15273243;19;20089;-45
2023/05/18 06:16:38;;;;;;;5.65;1.73;;;;;;;7.11;100.00;99374.22;15276132;19;20025;-46
2023/05/18 06:22:06;;;;;;;2.85;1.30;;;;;;;7.27;100.00;99379.28;15279726;19;20094;-46
2023/05/18 06:27:50;;;;;;;6.90;1.50;;;;;;;7.40;100.00;99377.38;14760739;19;10001545;-46
2023/05/18 06:33:29;;;;;;;5.28;1.73;;;;;;;7.55;100.00;99385.22;15278301;19;20018;-45
2023/05/18 06:38:56;;;;;;;6.37;1.47;;;;;;;7.70;100.00;99392.06;15275729;19;20017;-46
2023/05/18 06:44:22;;;;;;;7.35;1.98;;;;;;;7.84;100.00;99392.81;15275046;19;20025;-47
2023/05/18 06:49:57;;;;;;;5.30;1.70;;;;;;;8.02;100.00;99394.06;15269494;19;20014;-49
2023/05/18 06:55:24;;;;;;;5.35;1.60;;;;;;;8.18;100.00;99395.50;15272406;19;20050;-47
2023/05/18 07:00:49;;;;;;;5.63;1.55;;;;;;;8.37;100.00;99394.06;15273391;19;20014;-47
2023/05/18 07:06:14;;;;;;;6.15;1.60;;;;;;;8.61;100.00;99392.13;15273519;19;20023;-46
2023/05/18 07:11:44;;;;;;;6.22;1.80;;;;;;;8.78;100.00;99382.69;15270961;19;20383;-47
2023/05/18 07:17:08;;;;;;;5.45;1.50;;;;;;;8.99;100.00;99381.88;15269813;19;20031;-47
2023/05/18 07:22:39;;;;;;;6.18;1.65;;;;;;;9.21;100.00;99382.75;15274571;19;20015;-45
2023/05/18 07:28:07;;;;;;;4.70;1.67;;;;;;;9.36;100.00;99377.91;15262404;19;20021;-47
2023/05/18 07:33:32;;;;;;;5.70;1.60;;;;;;;9.55;100.00;99375.38;15276880;19;20010;-47
2023/05/18 07:38:59;;;;;;;5.38;1.15;;;;;;;9.73;100.00;99371.25;15273170;19;20644;-45
2023/05/18 07:44:26;;;;;;;4.95;1.40;;;;;;;9.91;100.00;99384.94;15271044;19;20014;-45
2023/05/18 07:49:51;;;;;;;5.80;1.58;;;;;;;10.05;100.00;99384.59;15269359;19;20031;-46
2023/05/18 07:55:16;;;;;;;5.57;1.60;;;;;;;10.20;100.00;99384.22;15266276;19;20022;-45
2023/05/18 08:00:43;;;;;;;3.75;1.48;;;;;;;10.37;100.00;99375.53;15264018;19;20014;-50
2023/05/18 08:06:08;;;;;;;5.47;1.40;;;;;;;10.51;100.00;99373.47;15266584;19;20037;-48
2023/05/18 08:11:33;;;;;;;5.22;1.48;;;;;;;10.68;100.00;99378.19;15269649;19;20488;-48
2023/05/18 08:17:01;;;;;;;8.55;1.77;;;;;;;10.78;100.00;99379.06;15269690;19;20022;-47
2023/05/18 08:22:26;;;;;;;4.90;1.60;;;;;;;11.01;100.00;99368.00;15272832;19;20006;-48
2023/05/18 08:27:51;;;;;;;4.20;1.48;;;;;;;11.27;100.00;99375.53;15266380;19;20014;-47
2023/05/18 08:33:25;;;;;;;4.18;1.48;;;;;;;11.45;100.00;99374.84;15265721;19;20830;-45
2023/05/18 08:38:52;;;;;;;3.85;1.40;;;;;;;11.68;100.00;99370.84;15268172;19;20082;-46
2023/05/18 08:44:23;;;;;;;5.55;1.55;;;;;;;12.10;100.00;99379.56;15270326;19;20022;-48
2023/05/18 08:49:53;;;;;;;5.20;1.73;;;;;;;12.30;100.00;99370.34;15268027;19;20025;-51
2023/05/18 08:55:19;;;;;;;3.05;1.20;;;;;;;12.60;100.00;99367.50;15267827;19;20470;-47
2023/05/18 09:00:44;;;;;;;4.22;1.52;;;;;;;12.87;100.00;99363.94;15267355;19;20018;-47
2023/05/18 09:06:14;;;;;;;6.28;1.50;;;;;;;12.98;100.00;99356.63;15260324;19;20025;-46
2023/05/18 09:11:41;;;;;;;3.10;1.23;;;;;;;13.00;100.00;99357.28;15266215;19;20020;-44
2023/05/18 09:17:05;;;;;;;3.55;1.23;;;;;;;12.91;95.89;99351.78;15263771;19;20024;-45
2023/05/18 09:22:34;;;;;;;4.40;1.15;;;;;;;12.99;91.05;99350.19;15269788;19;20110;-46
2023/05/18 09:27:52;;;;;;;4.03;1.20;;;;;;;13.14;98.53;99356.75;15263547;19;20015;-46
2023/05/18 09:33:25;;;;;;;4.88;1.40;;;;;;;13.41;98.61;99357.69;15262213;19;20409;-46
2023/05/18 09:38:54;;;;;;;3.58;1.23;;;;;;;13.44;87.14;99367.34;15260857;19;20804;-45
2023/05/18 09:44:19;;;;;;;4.43;1.48;;;;;;;13.35;90.31;99366.41;15266622;19;20492;-47
2023/05/18 09:49:44;;;;;;;5.70;1.73;;;;;;;13.30;85.28;99364.16;15274241;19;20037;-46
2023/05/18 09:55:13;;;;;;;4.10;1.38;;;;;;;13.34;91.16;99359.31;15280583;19;20074;-45
2023/05/18 10:00:44;;;;;;;3.63;1.30;;;;;;;13.56;87.43;99339.03;15281319;19;20021;-49
2023/05/18 10:06:12;;;;;;;5.75;1.73;;;;;;;13.84;83.35;99334.31;15272632;19;20085;-44
2023/05/18 10:11:41;;;;;;;3.08;1.20;;;;;;;14.06;75.72;99332.06;15263453;19;20022;-45
2023/05/18 10:17:07;;;;;;;3.80;1.88;;;;;;;14.21;75.24;99336.88;15272376;19;20753;-45
2023/05/18 10:22:36;;;;;;;5.30;1.83;;;;;;;14.05;73.32;99324.97;15277566;19;20495;-47
2023/05/18 10:28:05;;;;;;;4.18;1.50;;;;;;;14.02;75.47;99328.81;15270475;19;20014;-45
2023/05/18 10:33:38;;;;;;;4.97;1.80;;;;;;;14.05;73.64;99321.38;15278560;19;20025;-46
2023/05/18 10:39:05;;;;;;;6.38;2.30;;;;;;;14.16;75.65;99329.22;15275199;19;20013;-44
2023/05/18 10:44:32;;;;;;;3.90;1.38;;;;;;;13.96;73.47;99324.06;15266916;19;20634;-44
2023/05/18 10:50:00;;;;;;;4.20;1.45;;;;;;;14.06;73.02;99312.25;15272449;19;20019;-44
2023/05/18 10:55:26;;;;;;;5.70;1.70;;;;;;;14.16;71.55;99319.25;15272298;19;20021;-50
2023/05/18 11:00:56;;;;;;;4.13;1.33;;;;;;;14.10;70.50;99314.47;15268862;19;20475;-47
2023/05/18 11:06:23;;;;;;;4.07;1.30;;;;;;;14.11;70.40;99307.22;15265262;19;20022;-47
2023/05/18 11:11:55;;;;;;;4.40;1.40;;;;;;;14.23;65.99;99305.03;15264663;19;20136;-46
2023/05/18 11:17:30;;;;;;;4.53;1.52;;;;;;;14.11;71.13;99310.75;15261983;19;20029;-46
2023/05/18 11:23:05;;;;;;;3.20;1.10;;;;;;;14.11;66.26;99308.03;15273942;19;20685;-45
2023/05/18 11:28:32;;;;;;;2.72;1.25;;;;;;;14.31;70.44;99294.22;15265629;19;20025;-46
2023/05/18 11:34:00;;;;;;;3.47;1.20;;;;;;;14.31;65.05;99302.34;15266957;19;20500;-44
2023/05/18 11:39:31;;;;;;;3.13;1.10;;;;;;;14.11;65.93;99299.91;15269858;19;20016;-48
2023/05/18 11:45:10;;;;;;;3.83;1.10;;;;;;;14.35;64.23;99301.03;15274370;19;20018;-48
2023/05/18 11:50:38;;;;;;;2.60;1.27;;;;;;;14.56;64.66;99297.88;15267948;19;20355;-50
2023/05/18 11:56:03;;;;;;;2.83;1.50;;;;;;;14.74;65.11;99299.63;15270678;19;20363;-46
2023/05/18 12:01:28;;;;;;;4.85;1.65;;;;;;;14.84;64.44;99297.59;15272750;19;20010;-49
2023/05/18 12:06:58;;;;;;;2.50;1.10;;;;;;;15.13;60.24;99282.72;15272014;19;20050;-52
2023/05/18 12:12:24;;;;;;;3.17;0.98;;;;;;;15.59;63.66;99284.03;15266954;19;20029;-44
2023/05/18 12:17:51;;;;;;;3.10;1.30;;;;;;;15.80;60.59;99278.03;15268544;19;20362;-46
2023/05/18 12:23:18;;;;;;;2.28;1.00;;;;;;;15.90;60.18;99284.16;15276660;19;20025;-43
2023/05/18 12:28:43;;;;;;;2.88;1.20;;;;;;;16.08;59.31;99278.50;15269430;19;20485;-47
2023/05/18 12:34:10;;;;;;;3.15;1.10;;;;;;;16.23;57.76;99269.59;15270059;19;20480;-51
2023/05/18 12:39:38;;;;;;;2.75;1.00;;;;;;;16.18;58.15;99270.97;15272711;19;20010;-46
2023/05/18 12:45:02;;;;;;;4.15;1.00;;;;;;;16.23;59.15;99265.00;15267156;19;20042;-45
2023/05/18 12:50:28;;;;;;;2.75;1.10;;;;;;;16.31;55.81;99267.66;15262556;19;20610;-46
2023/05/18 12:56:08;;;;;;;3.33;1.20;;;;;;;16.30;56.15;99257.81;15266917;19;20018;-45
2023/05/18 13:01:43;;;;;;;4.30;1.30;;;;;;;16.48;57.09;99267.59;15269108;19;20037;-46
2023/05/18 13:07:10;;;;;;;2.00;0.98;;;;;;;16.53;56.77;99267.88;15260992;19;20524;-45
2023/05/18 13:12:49;;;;;;;2.72;1.10;;;;;;;16.55;54.31;99257.69;15263650;19;20012;-46
2023/05/18 13:18:17;;;;;;;2.00;1.00;;;;;;;16.88;55.96;99260.16;15258948;19;20085;-47
2023/05/18 13:23:42;;;;;;;4.93;1.10;;;;;;;17.04;53.59;99261.09;15267817;19;20469;-46
2023/05/18 13:29:14;;;;;;;4.28;1.00;;;;;;;17.08;54.57;99265.16;15280303;19;20270;-45
2023/05/18 13:34:41;;;;;;;4.72;1.23;;;;;;;17.17;56.48;99263.22;15280622;19;20020;-49
2023/05/18 13:40:07;;;;;;;3.22;1.17;;;;;;;17.09;55.94;99255.97;15279884;19;20011;-45
2023/05/18 13:45:36;;;;;;;2.70;1.08;;;;;;;16.93;54.18;99246.88;15277747;19;20081;-50
2023/05/18 13:51:00;;;;;;;5.03;1.50;;;;;;;16.85;54.72;99248.81;15277528;19;20011;-53
2023/05/18 13:56:26;;;;;;;5.70;1.23;;;;;;;16.65;54.72;99254.72;15271196;19;20046;-47
2023/05/18 14:01:53;;;;;;;4.03;1.20;;;;;;;16.67;55.22;99249.09;15278401;19;20554;-45
2023/05/18 14:07:18;;;;;;;2.83;1.17;;;;;;;16.62;57.08;99249.63;15274225;19;20029;-47
2023/05/18 14:12:43;;;;;;;1.75;0.80;;;;;;;16.56;56.14;99237.59;15274401;19;20486;-48
2023/05/18 14:18:13;;;;;;;3.17;1.10;;;;;;;16.48;55.24;99240.38;15270098;19;20026;-50
2023/05/18 14:23:38;;;;;;;2.88;1.05;;;;;;;16.44;55.73;99236.31;15277650;19;20014;-46
2023/05/18 14:29:03;;;;;;;4.82;1.17;;;;;;;16.29;56.03;99239.81;15272075;19;20018;-48
2023/05/18 14:34:30;;;;;;;2.58;1.08;;;;;;;16.10;55.29;99230.25;15276464;19;20014;-47
2023/05/18 14:39:55;;;;;;;3.00;1.02;;;;;;;16.18;56.35;99227.47;15278689;19;20007;-47
2023/05/18 14:45:19;;;;;;;2.72;0.90;;;;;;;16.15;57.36;99226.97;15274010;19;20025;-46
2023/05/18 14:50:48;;;;;;;4.28;1.08;;;;;;;16.01;56.58;99231.28;15275968;19;20029;-45
2023/05/18 14:56:13;;;;;;;2.97;0.90;;;;;;;16.00;56.46;99238.59;15272462;19;20015;-45
2023/05/18 15:01:38;;;;;;;3.92;1.20;;;;;;;16.07;58.27;99229.72;15271587;19;20007;-47
2023/05/18 15:07:07;;;;;;;4.25;1.00;;;;;;;16.02;57.80;99244.72;15269685;19;20029;-45
2023/05/18 15:12:32;;;;;;;3.03;1.30;;;;;;;15.93;57.18;99240.34;15271649;19;20018;-45
2023/05/18 15:17:56;;;;;;;2.88;1.55;;;;;;;15.90;58.22;99229.81;15267975;19;20078;-44
2023/05/18 15:23:25;;;;;;;5.47;1.58;;;;;;;15.80;57.34;99231.84;15273707;19;20411;-46
2023/05/18 15:28:50;;;;;;;4.30;1.73;;;;;;;15.82;58.48;99230.66;15269367;19;20014;-47
2023/05/18 15:34:21;;;;;;;2.15;0.95;;;;;;;15.84;57.49;99230.47;15258658;19;20021;-46
2023/05/18 15:39:49;;;;;;;3.83;1.20;;;;;;;16.47;55.20;99222.38;15273714;19;20011;-47
2023/05/18 15:45:16;;;;;;;2.55;1.10;;;;;;;17.27;56.33;99209.34;15267572;19;20010;-44
2023/05/18 15:50:41;;;;;;;2.35;1.13;;;;;;;17.60;55.24;99216.31;15270565;19;20042;-46
2023/05/18 15:56:09;;;;;;;2.13;1.10;;;;;;;17.83;52.62;99208.88;15267138;19;20524;-45
2023/05/18 16:01:34;;;;;;;2.50;1.20;;;;;;;18.16;51.81;99215.84;15271358;19;20486;-45
2023/05/18 16:06:58;;;;;;;2.60;1.20;;;;;;;18.13;51.43;99197.97;15258967;19;20021;-44
2023/05/18 16:12:26;;;;;;;2.92;1.00;;;;;;;17.91;50.39;99201.66;15270739;19;20013;-51
2023/05/18 16:17:51;;;;;;;4.68;1.15;;;;;;;17.48;51.81;99186.81;15266125;19;20374;-49
2023/05/18 16:23:17;;;;;;;3.13;1.10;;;;;;;17.28;51.06;99185.66;15272169;19;20022;-47
2023/05/18 16:28:45;;;;;;;2.80;1.10;;;;;;;17.17;52.04;99185.09;15264988;19;20078;-50
2023/05/18 16:34:16;;;;;;;4.00;1.10;;;;;;;16.88;52.31;99189.41;15267776;19;20041;-48
2023/05/18 16:39:41;;;;;;;2.92;1.10;;;;;;;16.76;52.74;99191.72;15263501;19;20006;-53
2023/05/18 16:45:08;;;;;;;4.18;1.00;;;;;;;16.64;54.51;99182.31;15266512;19;20479;-50
2023/05/18 16:50:34;;;;;;;2.85;0.98;;;;;;;16.36;55.25;99187.44;15264585;19;20021;-46
2023/05/18 16:55:58;;;;;;;3.85;1.20;;;;;;;16.19;56.25;99184.81;15263882;19;20014;-48
2023/05/18 17:01:26;;;;;;;3.70;1.20;;;;;;;16.06;57.70;99176.38;15266301;19;20019;-50
2023/05/18 17:06:51;;;;;;;2.97;1.20;;;;;;;15.74;57.90;99175.50;15266158;19;20007;-46
2023/05/18 17:12:16;;;;;;;4.35;1.00;;;;;;;15.63;59.31;99185.72;15260214;19;20430;-46
2023/05/18 17:17:44;;;;;;;4.05;1.10;;;;;;;15.55;59.63;99191.19;15262561;19;20134;-43
2023/05/18 17:23:11;;;;;;;2.85;1.30;;;;;;;15.40;59.43;99186.47;15269341;19;20372;-46
2023/05/18 17:28:36;;;;;;;3.78;1.17;;;;;;;15.49;59.04;99183.72;15262303;19;20021;-48
2023/05/18 17:34:11;;;;;;;4.40;1.35;;;;;;;15.56;59.01;99180.13;15249244;19;20018;-45
2023/05/18 17:39:35;;;;;;;2.80;1.13;;;;;;;15.59;60.27;99176.22;15266023;19;20011;-44
2023/05/18 17:45:00;;;;;;;2.72;1.00;;;;;;;15.38;59.20;99187.66;15260114;19;20061;-43
2023/05/18 17:50:28;;;;;;;5.22;1.13;;;;;;;15.08;60.36;99185.53;15266417;19;20021;-44
2023/05/18 17:55:52;;;;;;;3.63;1.02;;;;;;;14.77;61.18;99194.34;15264810;19;20017;-45
2023/05/18 18:01:24;;;;;;;3.75;1.20;;;;;;;14.52;62.78;99193.47;15264372;19;20422;-42
2023/05/18 18:06:57;;;;;;;2.85;0.95;;;;;;;14.30;65.05;99195.81;15261150;19;20015;-44
2023/05/18 18:12:25;;;;;;;2.63;1.00;;;;;;;14.11;67.49;99190.69;15271731;19;20014;-43
2023/05/18 18:17:51;;;;;;;2.50;1.30;;;;;;;13.91;73.92;99195.53;15272750;19;20018;-45
2023/05/18 18:23:18;;;;;;;3.45;1.10;;;;;;;13.74;78.11;99195.44;15275772;19;20024;-44
2023/05/18 18:28:43;;;;;;;3.80;1.23;;;;;;;13.49;85.42;99192.63;15271194;19;20283;-43
2023/05/18 18:34:14;;;;;;;4.10;1.40;;;;;;;13.31;88.50;99199.94;15276121;19;20022;-43
2023/05/18 18:39:42;;;;;;;5.90;1.10;;;;;;;13.11;93.60;99208.28;15272215;19;20078;-45
2023/05/18 18:45:07;;;;;;;2.38;1.10;;;;;;;12.86;95.08;99204.53;15265135;19;20786;-46
2023/05/18 18:50:32;;;;;;;4.30;1.00;;;;;;;12.67;99.20;99205.53;15274182;19;20102;-46
2023/05/18 18:56:00;;;;;;;2.80;1.00;;;;;;;12.50;100.00;99210.81;15277129;19;20078;-42
2023/05/18 19:01:25;;;;;;;2.08;0.95;;;;;;;12.36;100.00;99216.75;15273551;19;20340;-43
2023/05/18 19:06:53;;;;;;;4.80;1.10;;;;;;;12.21;100.00;99222.66;15274245;19;20018;-45
2023/05/18 19:12:21;;;;;;;3.22;1.10;;;;;;;12.02;100.00;99227.19;15264956;19;20036;-43
2023/05/18 19:17:50;;;;;;;3.40;1.40;;;;;;;11.89;100.00;99234.78;15259925;19;20463;-43
2023/05/18 19:23:16;;;;;;;3.67;1.30;;;;;;;11.76;100.00;99237.78;15264495;19;20297;-42
2023/05/18 19:28:43;;;;;;;7.03;1.40;;;;;;;11.59;100.00;99242.13;15269603;19;20021;-44
2023/05/18 19:34:14;;;;;;;3.05;1.52;;;;;;;11.48;100.00;99235.06;15265913;19;20018;-43
2023/05/18 19:39:38;;;;;;;3.83;1.43;;;;;;;11.35;100.00;99234.53;15268508;19;20014;-44
2023/05/18 19:45:06;;;;;;;2.75;1.48;;;;;;;11.27;100.00;99235.28;15267295;19;20006;-44
2023/05/18 19:50:30;;;;;;;4.97;1.50;;;;;;;11.18;100.00;99239.69;15264237;19;20014;-44
2023/05/18 19:55:57;;;;;;;3.63;1.40;;;;;;;11.07;100.00;99247.94;15265036;19;20018;-42
2023/05/18 20:01:26;;;;;;;3.17;1.30;;;;;;;11.01;100.00;99245.84;15269736;19;20018;-42
2023/05/18 20:06:51;;;;;;;3.70;1.45;;;;;;;10.96;100.00;99243.56;15268682;19;20031;-42
2023/05/18 20:12:16;;;;;;;4.78;1.30;;;;;;;10.92;100.00;99259.19;15263136;19;20026;-43
2023/05/18 20:17:44;;;;;;;5.45;1.73;;;;;;;10.91;100.00;99254.78;15264390;19;20017;-44
2023/05/18 20:23:10;;;;;;;4.35;1.33;;;;;;;10.86;100.00;99253.50;15261287;19;20293;-42
2023/05/18 20:28:35;;;;;;;4.25;1.55;;;;;;;10.83;100.00;99243.84;15268887;19;20006;-43
2023/05/18 20:34:09;;;;;;;3.90;1.50;;;;;;;10.81;100.00;99245.84;15268164;19;20038;-42
2023/05/18 20:39:33;;;;;;;3.13;1.27;;;;;;;10.77;100.00;99247.13;15267413;19;20358;-45
2023/05/18 20:45:00;;;;;;;2.78;1.50;;;;;;;10.74;100.00;99248.25;15268127;19;20057;-43
2023/05/18 20:50:27;;;;;;;3.50;1.20;;;;;;;10.71;100.00;99251.25;15267234;19;20017;-45
2023/05/18 20:55:53;;;;;;;3.85;1.25;;;;;;;10.70;100.00;99248.69;15257472;19;20031;-43
2023/05/18 21:01:19;;;;;;;3.35;1.25;;;;;;;10.69;100.00;99252.38;15243935;19;20021;-43
2023/05/18 21:06:48;;;;;;;3.17;1.17;;;;;;;10.65;100.00;99243.69;15269378;19;20013;-45
2023/05/18 21:12:13;;;;;;;3.30;1.40;;;;;;;10.62;100.00;99244.00;15269612;19;20042;-42
2023/05/18 21:17:37;;;;;;;2.83;1.30;;;;;;;10.56;100.00;99249.94;15263321;19;20493;-43
2023/05/18 21:23:04;;;;;;;4.32;1.50;;;;;;;10.48;100.00;99246.13;15266790;19;20479;-43
2023/05/18 21:28:30;;;;;;;4.75;1.55;;;;;;;10.44;100.00;99258.16;15260863;19;20010;-43
2023/05/18 21:34:03;;;;;;;3.90;1.40;;;;;;;10.40;100.00;99259.44;15266215;19;20493;-44
2023/05/18 21:39:31;;;;;;;3.95;1.60;;;;;;;10.40;100.00;99255.88;15264717;19;20007;-44
2023/05/18 21:44:56;;;;;;;4.00;1.50;;;;;;;10.36;100.00;99259.81;15273933;19;20019;-44
2023/05/18 21:50:21;;;;;;;3.65;1.58;;;;;;;10.30;100.00;99261.22;15279264;19;20055;-44
2023/05/18 21:55:49;;;;;;;5.65;1.60;;;;;;;10.27;100.00;99245.34;15277335;19;20010;-43
2023/05/18 22:01:18;;;;;;;5.10;1.70;;;;;;;10.24;100.00;99254.53;15272724;19;20825;-43
2023/05/18 22:06:50;;;;;;;4.38;1.40;;;;;;;10.20;100.00;99245.06;15280883;19;20609;-44
2023/05/18 22:12:17;;;;;;;4.97;1.50;;;;;;;10.15;100.00;99248.16;15276609;19;20018;-43
2023/05/18 22:17:44;;;;;;;5.30;1.63;;;;;;;10.12;100.00;99243.06;15279778;19;20025;-44
2023/05/18 22:23:10;;;;;;;2.55;1.27;;;;;;;10.09;100.00;99240.63;15275429;19;20011;-43
2023/05/18 22:28:38;;;;;;;4.50;1.52;;;;;;;10.06;100.00;99242.75;15278796;19;20010;-44
2023/05/18 22:34:09;;;;;;;2.92;1.50;;;;;;;10.02;100.00;99244.88;15269785;19;20026;-43
2023/05/18 22:39:33;;;;;;;5.55;1.50;;;;;;;10.00;100.00;99238.78;15279313;19;20010;-43
2023/05/18 22:45:01;;;;;;;4.10;1.55;;;;;;;9.98;100.00;99229.97;15279220;19;20628;-43
2023/05/18 22:50:26;;;;;;;3.58;1.42;;;;;;;9.96;100.00;99231.94;15278875;19;20019;-44
2023/05/18 22:55:50;;;;;;;4.93;1.60;;;;;;;9.94;100.00;99231.22;15268497;19;20021;-43
2023/05/18 23:01:17;;;;;;;3.78;1.33;;;;;;;9.92;100.00;99222.47;15275793;19;20034;-43
2023/05/18 23:06:42;;;;;;;3.30;1.20;;;;;;;9.90;100.00;99236.03;15271184;19;20009;-43
2023/05/18 23:12:09;;;;;;;3.75;1.35;;;;;;;9.90;100.00;99232.50;15276298;19;20053;-43
2023/05/18 23:17:38;;;;;;;3.92;1.30;;;;;;;9.87;100.00;99228.25;15276324;19;20057;-42
2023/05/18 23:23:03;;;;;;;7.35;1.60;;;;;;;9.85;100.00;99235.63;15274165;19;20010;-42
2023/05/18 23:28:28;;;;;;;5.80;1.38;;;;;;;9.81;100.00;99235.03;15273069;19;20020;-43
2023/05/18 23:34:04;;;;;;;2.83;1.40;;;;;;;9.81;100.00;99229.66;15282810;19;20006;-80
2023/05/18 23:39:29;;;;;;;3.53;1.50;;;;;;;9.78;100.00;99219.16;15299328;19;20094;-80
2023/05/18 23:44:56;;;;;;;7.13;1.55;;;;;;;9.76;100.00;99225.69;15301899;19;20049;-80
2023/05/18 23:50:24;;;;;;;5.10;1.40;;;;;;;9.76;100.00;99226.50;15304190;19;20092;-80
2023/05/18 23:55:51;;;;;;;4.78;1.40;;;;;;;9.75;100.00;99210.50;15304140;19;20015;-81
